createdAt,value
2023-02-05T00:01:22.148Z,2.00
2023-02-05T00:06:27.022Z,1.70
2023-02-05T00:11:30.119Z,1.80
2023-02-05T00:16:35.940Z,1.93
2023-02-05T00:21:40.752Z,1.97
2023-02-05T00:26:43.962Z,1.53
2023-02-05T00:31:49.586Z,1.20
2023-02-05T00:36:54.416Z,1.60
2023-02-05T00:41:59.252Z,1.70
2023-02-05T00:47:02.474Z,1.80
2023-02-05T00:52:07.197Z,1.60
2023-02-05T00:57:10.321Z,2.50
2023-02-05T01:02:13.593Z,1.97
2023-02-05T01:07:18.254Z,1.80
2023-02-05T01:12:21.567Z,2.20
2023-02-05T01:17:24.755Z,2.00
2023-02-05T01:22:30.339Z,1.90
2023-02-05T01:27:33.638Z,1.90
2023-02-05T01:32:36.826Z,1.87
2023-02-05T01:37:41.492Z,1.70
2023-02-05T01:42:44.747Z,1.63
2023-02-05T01:47:48.033Z,2.00
2023-02-05T01:52:53.656Z,2.20
2023-02-05T01:57:57.862Z,1.93
2023-02-05T02:03:01.591Z,1.60
2023-02-05T02:08:06.261Z,1.83
2023-02-05T02:13:09.749Z,1.80
2023-02-05T02:18:29.124Z,1.50
2023-02-05T02:23:46.647Z,1.53
2023-02-05T02:28:53.511Z,1.20
2023-02-05T02:34:02.536Z,1.30
2023-02-05T02:39:13.635Z,1.20
2023-02-05T02:44:21.852Z,1.23
2023-02-05T02:49:31.530Z,1.27
2023-02-05T02:54:38.443Z,1.17
2023-02-05T02:59:47.036Z,1.10
2023-02-05T03:04:53.601Z,1.50
2023-02-05T03:10:04.288Z,1.40
2023-02-05T03:15:11.304Z,1.03
2023-02-05T03:20:20.971Z,1.23
2023-02-05T03:25:27.368Z,1.10
2023-02-05T03:30:43.930Z,1.13
2023-02-05T03:35:55.453Z,2.40
2023-02-05T03:41:06.388Z,1.13
2023-02-05T03:46:19.559Z,1.13
2023-02-05T03:51:34.052Z,1.37
2023-02-05T03:56:47.154Z,1.43
2023-02-05T04:01:54.068Z,1.00
2023-02-05T04:06:57.863Z,1.43
2023-02-05T04:12:01.378Z,1.80
2023-02-05T04:17:08.658Z,0.93
2023-02-05T04:22:12.089Z,1.30
2023-02-05T04:27:19.116Z,1.23
2023-02-05T04:32:24.562Z,1.07
2023-02-05T04:37:27.948Z,1.20
2023-02-05T04:42:31.584Z,0.83
2023-02-05T04:47:36.685Z,1.00
2023-02-05T04:52:39.958Z,0.90
2023-02-05T04:57:43.337Z,0.77
2023-02-05T05:02:48.071Z,1.03
2023-02-05T05:07:51.381Z,0.60
2023-02-05T05:12:54.695Z,0.70
2023-02-05T05:17:59.389Z,1.10
2023-02-05T05:23:02.568Z,1.30
2023-02-05T05:28:06.167Z,0.77
2023-02-05T05:33:11.182Z,0.83
2023-02-05T05:38:14.496Z,7.10
2023-02-05T05:43:37.078Z,6.57
2023-02-05T05:48:42.323Z,2.97
2023-02-05T05:53:47.557Z,7.80
2023-02-05T05:58:51.341Z,6.47
2023-02-05T06:03:56.233Z,6.40
2023-02-05T06:08:59.424Z,6.80
2023-02-05T06:14:02.575Z,8.97
2023-02-05T06:19:07.171Z,6.33
2023-02-05T06:24:10.347Z,6.00
2023-02-05T06:29:13.440Z,3.80
2023-02-05T06:34:17.875Z,3.53
2023-02-05T06:39:21.147Z,6.10
2023-02-05T06:44:24.483Z,12.63
2023-02-05T06:49:29.663Z,8.90
2023-02-05T06:54:33.139Z,6.20
2023-02-05T06:59:36.445Z,4.43
2023-02-05T07:04:41.140Z,4.60
2023-02-05T07:09:44.872Z,4.20
2023-02-05T07:14:48.381Z,4.20
2023-02-05T07:19:53.447Z,4.67
2023-02-05T07:24:58.034Z,2.93
2023-02-05T07:30:01.460Z,2.70
2023-02-05T07:35:06.884Z,2.77
2023-02-05T07:40:11.424Z,4.13
2023-02-05T07:45:15.256Z,6.90
2023-02-05T07:50:20.282Z,5.70
2023-02-05T07:55:23.708Z,7.63
2023-02-05T08:00:27.105Z,6.60
2023-02-05T08:05:32.193Z,5.60
2023-02-05T08:10:36.028Z,5.27
2023-02-05T08:15:40.274Z,3.90
2023-02-05T08:20:45.596Z,6.00
2023-02-05T08:25:49.516Z,7.03
2023-02-05T08:30:53.042Z,4.07
2023-02-05T08:35:59.557Z,5.60
2023-02-05T08:41:12.722Z,5.40
2023-02-05T08:46:20.659Z,7.47
2023-02-05T08:51:26.926Z,5.73
2023-02-05T08:56:30.664Z,7.10
2023-02-05T09:01:33.940Z,5.67
2023-02-05T09:06:38.652Z,7.77
2023-02-05T09:11:42.587Z,6.67
2023-02-05T09:16:45.876Z,7.50
2023-02-05T09:21:51.869Z,7.37
2023-02-05T09:26:57.042Z,13.23
2023-02-05T09:32:00.705Z,20.30
2023-02-05T09:37:07.715Z,20.47
2023-02-05T09:42:21.798Z,17.53
2023-02-05T09:47:32.955Z,19.97
2023-02-05T09:52:40.279Z,21.43
2023-02-05T09:57:44.283Z,16.97
2023-02-05T10:02:51.849Z,20.60
2023-02-05T10:08:05.470Z,18.77
2023-02-05T10:13:34.416Z,30.80
2023-02-05T10:18:52.559Z,22.40
2023-02-05T10:24:23.592Z,32.17
2023-02-05T10:29:36.764Z,26.40
2023-02-05T10:34:52.733Z,28.13
2023-02-05T10:39:59.143Z,24.13
2023-02-05T10:45:14.635Z,21.10
2023-02-05T10:50:24.372Z,18.17
2023-02-05T10:55:29.839Z,22.93
2023-02-05T11:00:33.334Z,22.43
2023-02-05T11:05:40.056Z,22.10
2023-02-05T11:10:54.290Z,20.40
2023-02-05T11:16:00.316Z,26.80
2023-02-05T11:21:08.788Z,25.00
2023-02-05T11:26:20.160Z,17.73
2023-02-05T11:31:27.235Z,14.03
2023-02-05T11:36:31.415Z,19.33
2023-02-05T11:41:48.390Z,17.30
2023-02-05T11:46:57.027Z,15.37
2023-02-05T11:52:01.858Z,13.57
2023-02-05T11:57:09.142Z,14.37
2023-02-05T12:02:35.877Z,6.30
2023-02-05T12:07:44.240Z,4.83
2023-02-05T12:13:02.073Z,5.47
2023-02-05T12:18:19.305Z,6.27
2023-02-05T12:23:31.823Z,9.27
2023-02-05T12:28:45.696Z,12.60
2023-02-05T12:34:14.117Z,7.30
2023-02-05T12:39:33.085Z,21.40
2023-02-05T12:44:49.869Z,14.87
2023-02-05T12:50:12.440Z,8.97
2023-02-05T12:55:28.144Z,29.33
2023-02-05T13:00:39.555Z,6.57
2023-02-05T13:05:50.156Z,4.93
2023-02-05T13:10:58.943Z,6.30
2023-02-05T13:16:08.169Z,32.93
2023-02-05T13:21:34.127Z,4.90
2023-02-05T13:26:58.548Z,3.40
2023-02-05T13:32:16.053Z,4.03
2023-02-05T13:37:35.013Z,4.97
2023-02-05T13:43:00.123Z,7.43
2023-02-05T13:48:21.510Z,7.77
2023-02-05T13:53:40.653Z,9.20
2023-02-05T13:58:50.142Z,9.57
2023-02-05T14:04:01.232Z,10.80
2023-02-05T14:09:08.729Z,7.73
2023-02-05T14:14:30.608Z,6.77
2023-02-05T14:20:00.827Z,11.07
2023-02-05T14:25:05.281Z,5.93
2023-02-05T14:30:41.540Z,8.13
2023-02-05T14:35:49.089Z,6.27
2023-02-05T14:41:04.648Z,9.23
2023-02-05T14:46:21.139Z,7.20
2023-02-05T14:51:32.777Z,6.83
2023-02-05T14:56:41.706Z,4.67
2023-02-05T15:01:50.591Z,3.77
2023-02-05T15:06:57.951Z,4.50
2023-02-05T15:12:22.138Z,5.93
2023-02-05T15:17:47.592Z,4.80
2023-02-05T15:22:57.974Z,3.47
2023-02-05T15:28:05.419Z,6.40
2023-02-05T15:33:16.873Z,6.60
2023-02-05T15:38:29.435Z,4.17
2023-02-05T15:43:33.245Z,4.77
2023-02-05T15:48:39.216Z,5.93
2023-02-05T15:53:51.082Z,11.97
2023-02-05T15:58:56.483Z,11.77
2023-02-05T16:04:00.286Z,10.53
2023-02-05T16:09:17.298Z,6.50
2023-02-05T16:14:22.415Z,8.33
2023-02-05T16:19:30.307Z,8.43
2023-02-05T16:24:38.065Z,7.03
2023-02-05T16:29:48.221Z,5.70
2023-02-05T16:34:51.897Z,6.13
2023-02-05T16:39:58.179Z,5.73
2023-02-05T16:45:20.088Z,5.43
2023-02-05T16:50:37.259Z,6.00
2023-02-05T16:55:45.813Z,5.33
2023-02-05T17:00:58.152Z,6.03
2023-02-05T17:06:03.259Z,9.90
2023-02-05T17:11:28.769Z,7.70
2023-02-05T17:16:33.056Z,6.93
2023-02-05T17:21:37.371Z,12.93
2023-02-05T17:26:43.786Z,15.63
2023-02-05T17:31:47.393Z,14.93
2023-02-05T17:36:51.507Z,11.43
2023-02-05T17:42:07.746Z,10.80
2023-02-05T17:47:11.064Z,8.97
2023-02-05T17:52:15.471Z,9.53
2023-02-05T17:57:21.929Z,10.17
2023-02-05T18:02:25.259Z,12.70
2023-02-05T18:07:33.023Z,19.13
2023-02-05T18:12:37.780Z,20.37
2023-02-05T18:17:41.931Z,39.00
2023-02-05T18:22:45.148Z,25.33
2023-02-05T18:27:50.377Z,29.30
2023-02-05T18:32:53.874Z,19.30
2023-02-05T18:37:58.423Z,11.60
2023-02-05T18:43:04.763Z,11.83
2023-02-05T18:48:08.455Z,7.00
2023-02-05T18:53:11.617Z,7.93
2023-02-05T18:58:16.208Z,11.83
2023-02-05T19:03:20.214Z,12.73
2023-02-05T19:08:23.442Z,10.10
2023-02-05T19:13:29.258Z,9.27
2023-02-05T19:18:33.062Z,10.63
2023-02-05T19:23:37.467Z,9.90
2023-02-05T19:28:44.136Z,10.50
2023-02-05T19:33:47.421Z,10.90
2023-02-05T19:38:50.706Z,13.17
2023-02-05T19:43:57.470Z,12.77
2023-02-05T19:49:03.338Z,13.90
2023-02-05T19:54:06.849Z,15.30
2023-02-05T19:59:12.001Z,15.37
2023-02-05T20:04:17.788Z,14.17
2023-02-05T20:09:21.253Z,15.80
2023-02-05T20:14:25.985Z,14.03
2023-02-05T20:19:29.537Z,14.53
2023-02-05T20:24:34.116Z,15.43
2023-02-05T20:29:56.473Z,15.53
2023-02-05T20:35:00.449Z,15.23
2023-02-05T20:40:04.076Z,17.13
2023-02-05T20:45:10.029Z,16.20
2023-02-05T20:50:13.450Z,15.33
2023-02-05T20:55:17.236Z,15.00
2023-02-05T21:00:26.509Z,15.07
2023-02-05T21:05:29.837Z,14.83
2023-02-05T21:10:33.052Z,12.93
2023-02-05T21:15:37.868Z,13.70
2023-02-05T21:20:41.068Z,12.63
2023-02-05T21:25:45.167Z,11.93
2023-02-05T21:30:51.295Z,14.60
2023-02-05T21:35:54.965Z,14.57
2023-02-05T21:41:00.708Z,15.17
2023-02-05T21:46:06.812Z,15.17
2023-02-05T21:51:12.686Z,15.27
2023-02-05T21:56:17.696Z,14.40
2023-02-05T22:01:24.517Z,14.60
2023-02-05T22:06:29.560Z,14.27
2023-02-05T22:11:32.924Z,13.40
2023-02-05T22:16:38.653Z,13.20
2023-02-05T22:21:43.588Z,11.37
2023-02-05T22:26:47.806Z,12.60
2023-02-05T22:31:54.317Z,12.43
2023-02-05T22:36:57.418Z,13.00
2023-02-05T22:42:01.478Z,11.83
2023-02-05T22:47:06.144Z,12.77
2023-02-05T22:52:10.830Z,12.53
2023-02-05T22:57:14.133Z,12.50
2023-02-05T23:02:18.733Z,12.23
2023-02-05T23:07:21.898Z,10.43
2023-02-05T23:12:25.223Z,9.77
2023-02-05T23:17:29.705Z,11.30
2023-02-05T23:22:33.219Z,10.50
2023-02-05T23:27:36.690Z,10.77
2023-02-05T23:32:41.191Z,8.67
2023-02-05T23:37:44.373Z,10.00
2023-02-05T23:42:48.217Z,9.90
2023-02-05T23:47:52.892Z,8.90
2023-02-05T23:52:56.074Z,9.00
2023-02-05T23:57:59.375Z,8.00
